createdAt,value
2019-01-23T00:03:37.498Z,26.20
2019-01-23T00:08:40.213Z,23.80
2019-01-23T00:13:42.908Z,23.20
2019-01-23T00:18:45.601Z,31.40
2019-01-23T00:24:07.843Z,31.57
2019-01-23T00:29:10.544Z,26.83
2019-01-23T00:34:13.297Z,22.47
2019-01-23T00:39:16.042Z,28.03
2019-01-23T00:44:38.235Z,23.10
2019-01-23T00:50:00.467Z,30.87
2019-01-23T00:55:04.528Z,23.70
2019-01-23T01:00:14.186Z,22.40
2019-01-23T01:05:36.402Z,23.77
2019-01-23T01:10:58.586Z,24.57
2019-01-23T01:16:20.754Z,25.37
2019-01-23T01:21:42.930Z,23.23
2019-01-23T01:27:05.126Z,23.63
2019-01-23T01:32:27.284Z,29.10
2019-01-23T01:37:29.954Z,29.80
2019-01-23T01:42:32.636Z,30.20
2019-01-23T01:47:35.330Z,23.57
2019-01-23T01:52:39.592Z,22.63
2019-01-23T01:57:42.315Z,31.57
2019-01-23T02:02:45.002Z,21.47
2019-01-23T02:08:00.246Z,29.93
2019-01-23T02:13:02.988Z,27.27
2019-01-23T02:18:25.174Z,23.90
2019-01-23T02:23:27.874Z,30.67
2019-01-23T02:28:50.076Z,25.43
2019-01-23T02:34:12.269Z,23.73
2019-01-23T02:39:34.496Z,29.90
2019-01-23T02:44:56.678Z,33.00
2019-01-23T02:50:18.870Z,30.90
2019-01-23T02:55:22.788Z,22.70
2019-01-23T03:00:25.484Z,27.03
2019-01-23T03:05:48.324Z,27.10
2019-01-23T03:11:10.606Z,29.63
2019-01-23T03:16:32.797Z,29.97
2019-01-23T03:21:54.970Z,26.90
2019-01-23T03:27:17.162Z,31.47
2019-01-23T03:32:39.344Z,29.17
2019-01-23T03:38:01.546Z,31.47
2019-01-23T03:43:23.723Z,29.43
2019-01-23T03:48:26.397Z,24.37
2019-01-23T03:53:48.591Z,30.47
2019-01-23T03:59:10.826Z,27.30
2019-01-23T04:04:33.028Z,30.67
2019-01-23T04:09:35.717Z,27.57
2019-01-23T04:14:57.889Z,33.90
2019-01-23T04:20:21.481Z,22.53
2019-01-23T04:25:24.153Z,31.47
2019-01-23T04:30:46.331Z,30.47
2019-01-23T04:36:08.525Z,29.10
2019-01-23T04:41:30.708Z,29.80
2019-01-23T04:46:53.022Z,33.47
2019-01-23T04:52:34.802Z,27.90
2019-01-23T04:57:56.978Z,32.60
2019-01-23T05:03:19.173Z,27.10
2019-01-23T05:08:34.865Z,27.10
2019-01-23T05:13:37.542Z,25.70
2019-01-23T05:18:59.717Z,33.43
2019-01-23T05:24:21.911Z,34.40
2019-01-23T05:29:44.092Z,33.60
2019-01-23T05:34:46.794Z,24.70
2019-01-23T05:40:09.026Z,30.57
2019-01-23T05:45:12.307Z,33.50
2019-01-23T05:50:15.924Z,28.33
2019-01-23T05:55:18.611Z,32.03
2019-01-23T06:05:38.077Z,56.37
2019-01-23T06:11:00.250Z,38.70
2019-01-23T06:16:22.463Z,26.03
2019-01-23T06:21:44.662Z,34.30
2019-01-23T06:26:47.363Z,31.77
2019-01-23T06:32:09.588Z,34.07
2019-01-23T06:37:40.993Z,38.73
2019-01-23T06:43:03.301Z,35.10
2019-01-23T06:48:06.105Z,37.87
2019-01-23T06:53:28.334Z,33.07
2019-01-23T06:58:50.535Z,43.97
2019-01-23T07:04:12.891Z,26.70
2019-01-23T07:09:28.142Z,32.43
2019-01-23T07:14:50.335Z,31.63
2019-01-23T07:20:33.790Z,27.43
2019-01-23T07:25:55.977Z,30.00
2019-01-23T07:31:18.164Z,25.57
2019-01-23T07:36:40.355Z,29.20
2019-01-23T07:41:43.049Z,27.97
2019-01-23T07:47:05.239Z,32.77
2019-01-23T07:52:07.941Z,33.67
2019-01-23T07:57:30.133Z,32.43
2019-01-23T08:02:52.316Z,32.37
2019-01-23T08:08:07.421Z,32.37
2019-01-23T08:13:10.163Z,35.90
2019-01-23T08:18:12.904Z,25.27
2019-01-23T08:23:15.599Z,35.23
2019-01-23T08:28:18.282Z,33.50
2019-01-23T08:33:40.810Z,31.53
2019-01-23T08:39:24.383Z,29.93
2019-01-23T08:44:46.570Z,32.47
2019-01-23T08:50:32.426Z,37.60
2019-01-23T08:55:54.635Z,33.43
2019-01-23T09:00:57.324Z,36.57
2019-01-23T09:06:00.020Z,39.50
2019-01-23T09:11:22.259Z,39.83
2019-01-23T09:16:44.671Z,35.03
2019-01-23T09:22:06.884Z,37.30
2019-01-23T09:27:29.113Z,28.80
2019-01-23T09:33:30.274Z,41.20
2019-01-23T09:39:31.480Z,33.13
2019-01-23T09:45:32.657Z,40.10
2019-01-23T09:51:36.615Z,39.90
2019-01-23T09:56:58.803Z,44.07
2019-01-23T10:02:20.992Z,32.93
2019-01-23T10:07:36.533Z,34.03
2019-01-23T10:12:58.709Z,30.13
2019-01-23T10:18:20.902Z,27.80
2019-01-23T10:23:43.089Z,28.30
2019-01-23T10:29:05.293Z,46.27
2019-01-23T10:34:27.481Z,30.30
2019-01-23T10:39:49.667Z,34.57
2019-01-23T10:45:12.127Z,35.27
2019-01-23T10:50:34.304Z,39.53
2019-01-23T10:55:36.996Z,36.27
2019-01-23T11:00:59.187Z,30.63
2019-01-23T11:06:14.218Z,38.67
2019-01-23T11:11:36.400Z,36.97
2019-01-23T11:16:58.643Z,33.60
2019-01-23T11:22:01.328Z,40.80
2019-01-23T11:27:23.698Z,45.53
2019-01-23T11:32:45.904Z,35.50
2019-01-23T11:38:08.081Z,31.30
2019-01-23T11:43:30.341Z,36.93
2019-01-23T11:48:52.509Z,32.30
2019-01-23T11:53:55.600Z,35.57
2019-01-23T11:59:18.026Z,32.93
2019-01-23T12:04:40.229Z,32.93
2019-01-23T12:09:55.456Z,36.60
2019-01-23T12:15:20.506Z,30.40
2019-01-23T12:20:42.764Z,29.87
2019-01-23T12:26:04.938Z,31.10
2019-01-23T12:31:07.603Z,30.70
2019-01-23T12:41:17.753Z,30.00
2019-01-23T12:46:39.941Z,31.07
2019-01-23T12:52:02.607Z,27.37
2019-01-23T12:57:25.243Z,30.43
2019-01-23T13:02:47.422Z,30.10
2019-01-23T13:08:03.055Z,34.90
2019-01-23T13:13:25.242Z,31.67
2019-01-23T13:18:47.505Z,33.00
2019-01-23T13:24:09.689Z,31.77
2019-01-23T13:29:31.878Z,31.87
2019-01-23T13:34:54.057Z,36.60
2019-01-23T13:40:37.302Z,33.83
2019-01-23T13:45:59.478Z,26.53
2019-01-23T13:51:21.668Z,29.50
2019-01-23T13:56:43.846Z,28.67
2019-01-23T14:02:06.151Z,27.37
2019-01-23T14:07:22.026Z,37.70
2019-01-23T14:12:24.693Z,34.87
2019-01-23T14:17:27.365Z,32.87
2019-01-23T14:22:49.551Z,33.07
2019-01-23T14:28:11.751Z,30.23
2019-01-23T14:33:33.936Z,32.10
2019-01-23T14:38:56.107Z,29.13
2019-01-23T14:43:58.771Z,37.67
2019-01-23T14:49:01.484Z,36.87
2019-01-23T14:54:23.652Z,39.93
2019-01-23T14:59:45.835Z,32.93
2019-01-23T15:05:08.250Z,39.10
2019-01-23T15:10:18.034Z,45.20
2019-01-23T15:15:20.722Z,36.00
2019-01-23T15:20:43.448Z,38.67
2019-01-23T15:26:05.632Z,34.80
2019-01-23T15:31:27.818Z,38.10
2019-01-23T15:36:49.989Z,28.63
2019-01-23T15:42:12.175Z,34.57
2019-01-23T15:47:34.369Z,34.57
2019-01-23T15:52:56.533Z,29.20
2019-01-23T15:58:18.725Z,36.87
2019-01-23T16:03:40.898Z,31.30
2019-01-23T16:08:56.787Z,31.43
2019-01-23T16:14:19.045Z,36.40
2019-01-23T16:19:23.039Z,40.10
2019-01-23T16:24:26.297Z,46.37
2019-01-23T16:29:28.967Z,39.07
2019-01-23T16:34:31.631Z,39.90
2019-01-23T16:39:34.422Z,36.73
2019-01-23T16:44:56.619Z,36.90
2019-01-23T16:50:19.791Z,44.50
2019-01-23T16:55:41.976Z,39.77
2019-01-23T17:00:44.751Z,47.93
2019-01-23T17:11:57.294Z,44.23
2019-01-23T17:16:59.976Z,48.67
2019-01-23T17:22:02.635Z,52.13
2019-01-23T17:27:24.826Z,58.53
2019-01-23T17:32:47.060Z,59.67
2019-01-23T17:38:09.248Z,61.50
2019-01-23T17:49:02.113Z,66.37
2019-01-23T17:54:24.298Z,66.00
2019-01-23T17:59:46.490Z,62.87
2019-01-23T18:05:08.837Z,64.83
2019-01-23T18:10:24.648Z,65.40
2019-01-23T18:15:46.988Z,74.57
2019-01-23T18:21:09.165Z,62.80
2019-01-23T18:26:11.925Z,65.90
2019-01-23T18:31:38.581Z,58.07
2019-01-23T18:37:39.783Z,52.07
2019-01-23T18:43:41.216Z,59.23
2019-01-23T18:49:42.458Z,55.07
2019-01-23T18:55:07.876Z,62.27
2019-01-23T19:00:30.165Z,78.17
2019-01-23T19:05:53.680Z,53.07
2019-01-23T19:11:16.897Z,56.10
2019-01-23T19:16:39.187Z,71.53
2019-01-23T19:22:01.379Z,58.43
2019-01-23T19:27:23.579Z,53.57
2019-01-23T19:32:45.773Z,62.80
2019-01-23T19:38:07.950Z,51.40
2019-01-23T19:43:30.151Z,58.20
2019-01-23T19:48:52.369Z,65.27
2019-01-23T19:54:14.580Z,64.93
2019-01-23T19:59:36.761Z,53.67
2019-01-23T20:04:58.959Z,60.10
2019-01-23T20:10:15.275Z,57.60
2019-01-23T20:15:37.865Z,54.57
2019-01-23T20:21:01.525Z,57.63
2019-01-23T20:26:23.705Z,53.87
2019-01-23T20:31:26.391Z,56.73
2019-01-23T20:36:48.575Z,61.67
2019-01-23T20:41:51.270Z,65.57
2019-01-23T20:47:13.444Z,47.23
2019-01-23T20:52:35.641Z,47.60
2019-01-23T20:57:38.320Z,68.60
2019-01-23T21:03:00.502Z,65.10
2019-01-23T21:08:16.336Z,67.67
2019-01-23T21:13:38.495Z,64.30
2019-01-23T21:18:41.196Z,50.93
2019-01-23T21:24:03.540Z,75.47
2019-01-23T21:29:25.720Z,66.37
2019-01-23T21:34:49.275Z,74.43
2019-01-23T21:39:52.657Z,58.27
2019-01-23T21:44:55.389Z,68.53
2019-01-23T21:49:58.087Z,76.07
2019-01-23T21:55:00.790Z,66.50
2019-01-23T22:00:43.554Z,64.47
2019-01-23T22:06:05.738Z,66.30
2019-01-23T22:11:27.921Z,64.97
2019-01-23T22:16:30.611Z,65.63
2019-01-23T22:21:33.276Z,53.40
2019-01-23T22:26:35.957Z,51.20
2019-01-23T22:31:58.144Z,40.77
2019-01-23T22:37:20.331Z,56.10
2019-01-23T22:42:42.525Z,55.47
2019-01-23T22:47:45.336Z,56.87
2019-01-23T22:53:07.512Z,53.40
2019-01-23T22:58:29.694Z,58.57
2019-01-23T23:03:51.892Z,54.70
2019-01-23T23:09:08.440Z,43.90
2019-01-23T23:14:11.141Z,65.00
2019-01-23T23:19:13.794Z,68.57
2019-01-23T23:24:35.977Z,61.60
2019-01-23T23:29:58.175Z,54.93
2019-01-23T23:35:20.368Z,59.73
2019-01-23T23:40:42.691Z,62.90
2019-01-23T23:46:04.865Z,48.07
2019-01-23T23:51:27.047Z,73.43
2019-01-23T23:56:49.221Z,58.77
